Time;durP1;ratioP1;P1;durP2;ratioP2;P2;SDS_P1;SDS_P2;PMS_P1;PMS_P2;Temp;Humidity;BMP_temperature;BMP_pressure;BME280_temperature;BME280_humidity;BME280_pressure;Samples;Min_cycle;Max_cycle;Signal;HPM_P1;HPM_P2
2023/03/04 00:00:46;;;;;;;33.40;23.70;;;;;;;7.32;58.41;101639.66;107062;1269;25475;-49
2023/03/04 00:03:15;;;;;;;28.90;21.80;;;;;;;7.39;58.16;101635.72;107024;1269;24038;-48
2023/03/04 00:05:44;;;;;;;31.00;23.60;;;;;;;7.45;57.74;101636.43;107181;1260;25405;-48
2023/03/04 00:08:12;;;;;;;30.30;21.20;;;;;;;7.46;57.63;101633.52;107053;1269;25347;-48
2023/03/04 00:10:40;;;;;;;32.20;21.90;;;;;;;7.46;57.35;101631.78;106073;1259;1003675;-48
2023/03/04 00:13:26;;;;;;;29.40;22.20;;;;;;;7.48;57.15;101627.48;107010;1271;22614;-48
2023/03/04 00:15:55;;;;;;;28.30;21.40;;;;;;;7.50;57.30;101624.73;107004;1269;25561;-48
2023/03/04 00:18:25;;;;;;;32.20;23.00;;;;;;;7.54;57.11;101622.15;107065;1269;25335;-48
2023/03/04 00:20:54;;;;;;;27.80;21.60;;;;;;;7.57;57.20;101623.55;106165;1272;1003076;-48
2023/03/04 00:23:22;;;;;;;30.40;22.00;;;;;;;7.60;56.90;101624.60;106929;1270;22643;-48
2023/03/04 00:25:51;;;;;;;30.20;22.00;;;;;;;7.63;56.79;101618.05;107149;1269;25319;-48
2023/03/04 00:28:20;;;;;;;27.60;20.50;;;;;;;7.65;56.95;101615.80;107001;1269;25386;-48
2023/03/04 00:30:48;;;;;;;31.00;22.00;;;;;;;7.67;56.99;101614.27;107152;1269;24256;-48
2023/03/04 00:33:17;;;;;;;31.50;22.20;;;;;;;7.69;57.06;101611.85;107031;1268;25330;-48
2023/03/04 00:35:45;;;;;;;30.30;22.30;;;;;;;7.59;57.30;101609.05;106697;1275;25325;-48
2023/03/04 00:38:15;;;;;;;30.20;22.80;;;;;;;7.57;57.27;101610.60;107124;1269;25334;-48
2023/03/04 00:40:44;;;;;;;27.30;20.90;;;;;;;7.56;57.43;101602.65;107090;1269;26550;-48
2023/03/04 00:43:13;;;;;;;27.90;19.60;;;;;;;7.56;57.19;101601.44;106835;1272;25338;-48
2023/03/04 00:45:41;;;;;;;24.60;19.00;;;;;;;7.55;56.04;101594.36;106998;1269;22520;-48
2023/03/04 00:48:11;;;;;;;25.20;19.40;;;;;;;7.53;55.46;101594.70;106827;1270;25486;-48
2023/03/04 00:50:41;;;;;;;27.40;19.70;;;;;;;7.53;55.33;101592.98;107087;1269;25360;-48
2023/03/04 00:53:09;;;;;;;24.10;18.40;;;;;;;7.53;55.02;101591.94;107085;1269;22552;-48
2023/03/04 00:55:40;;;;;;;25.20;18.70;;;;;;;7.54;54.84;101585.21;107034;1269;25405;-48
2023/03/04 00:58:09;;;;;;;25.90;18.80;;;;;;;7.54;54.47;101582.98;106747;1257;25335;-48
2023/03/04 01:00:39;;;;;;;26.50;18.20;;;;;;;7.53;54.12;101587.27;106521;1270;25401;-48
2023/03/04 01:03:08;;;;;;;25.20;18.30;;;;;;;7.51;53.85;101586.23;107146;1269;25353;-48
2023/03/04 01:05:37;;;;;;;29.60;18.80;;;;;;;7.51;53.77;101584.48;107058;1268;25343;-47
2023/03/04 01:08:06;;;;;;;26.90;18.60;;;;;;;7.49;53.22;101582.23;106776;1270;25329;-48
2023/03/04 01:10:38;;;;;;;24.40;17.80;;;;;;;7.47;53.14;101577.41;106709;1272;22807;-47
2023/03/04 01:13:06;;;;;;;25.70;18.60;;;;;;;7.44;52.87;101570.84;106707;1273;25399;-47
2023/03/04 01:15:35;;;;;;;21.70;16.30;;;;;;;7.43;52.79;101574.46;106780;1270;25338;-47
2023/03/04 01:18:08;;;;;;;23.30;16.40;;;;;;;7.39;53.16;101573.41;106789;1272;25540;-47
2023/03/04 01:20:37;;;;;;;23.90;16.60;;;;;;;7.38;52.83;101571.66;106721;1272;26309;-47
2023/03/04 01:23:05;;;;;;;25.10;17.70;;;;;;;7.35;52.83;101573.40;106809;1257;25411;-47
2023/03/04 01:25:34;;;;;;;22.30;15.60;;;;;;;7.33;52.87;101571.14;106820;1270;25328;-47
2023/03/04 01:28:02;;;;;;;22.20;15.50;;;;;;;7.29;52.44;101568.70;106846;1270;25335;-47
2023/03/04 01:30:35;;;;;;;20.50;14.10;;;;;;;7.25;52.34;101570.92;106014;1271;1003583;-48
2023/03/04 01:33:05;;;;;;;18.90;14.60;;;;;;;7.22;52.10;101574.20;106747;1275;25338;-47
2023/03/04 01:35:35;;;;;;;17.90;14.00;;;;;;;7.19;51.66;101573.15;106794;1277;24282;-47
2023/03/04 01:38:04;;;;;;;22.10;15.10;;;;;;;7.16;51.69;101573.13;106848;1273;25356;-47
2023/03/04 01:40:32;;;;;;;21.80;15.40;;;;;;;7.12;51.78;101573.63;107039;1272;25346;-47
2023/03/04 01:43:01;;;;;;;21.40;14.80;;;;;;;7.08;52.03;101574.28;106912;1267;25335;-47
2023/03/04 01:45:30;;;;;;;21.50;15.50;;;;;;;7.04;52.17;101574.95;106223;1268;1003434;-47
2023/03/04 01:48:00;;;;;;;21.40;15.00;;;;;;;7.03;52.18;101572.87;106842;1268;25353;-47
2023/03/04 01:50:31;;;;;;;19.80;14.30;;;;;;;7.03;52.63;101570.80;107158;1267;25319;-47
2023/03/04 01:53:00;;;;;;;21.30;15.40;;;;;;;7.02;52.78;101570.29;106720;1275;24518;-47
2023/03/04 01:55:29;;;;;;;23.70;16.80;;;;;;;7.00;52.69;101569.92;107024;1272;23461;-47
2023/03/04 01:57:58;;;;;;;20.90;14.80;;;;;;;6.97;52.97;101570.09;106573;1270;22521;-48
2023/03/04 02:00:31;;;;;;;23.90;15.40;;;;;;;6.96;53.15;101571.11;106807;1272;24218;-47
2023/03/04 02:03:07;;;;;;;22.40;15.30;;;;;;;6.96;53.46;101571.80;106181;1269;1003744;-48
2023/03/04 02:05:40;;;;;;;21.20;15.40;;;;;;;6.96;53.62;101578.86;106252;1270;1003600;-48
2023/03/04 02:08:08;;;;;;;20.70;15.60;;;;;;;6.97;53.97;101579.23;106983;1267;22755;-48
2023/03/04 02:10:37;;;;;;;19.90;14.60;;;;;;;6.97;53.90;101573.70;107003;1272;25328;-48
2023/03/04 02:13:05;;;;;;;22.20;15.30;;;;;;;6.99;54.08;101572.68;106970;1269;24438;-47
2023/03/04 02:15:34;;;;;;;22.90;16.40;;;;;;;7.00;53.79;101572.16;106925;1269;25356;-49
2023/03/04 02:18:19;;;;;;;20.70;15.40;;;;;;;7.00;53.57;101573.38;106298;1270;1003698;-48
2023/03/04 02:20:51;;;;;;;23.10;15.80;;;;;;;7.01;53.56;101571.30;106312;1272;1003331;-48
2023/03/04 02:23:56;;;;;;;21.20;15.30;;;;;;;7.02;53.43;101566.84;106289;1269;1003648;-47
2023/03/04 02:26:29;;;;;;;21.30;14.90;;;;;;;7.00;53.64;101563.38;106635;1276;25486;-48
2023/03/04 02:28:59;;;;;;;22.40;16.00;;;;;;;6.98;53.63;101564.73;106589;1275;25352;-48
2023/03/04 02:31:34;;;;;;;22.30;16.10;;;;;;;6.98;53.80;101570.95;106441;1279;25332;-48
2023/03/04 02:34:11;;;;;;;23.40;15.30;;;;;;;7.01;53.96;101575.45;106639;1275;22755;-48
2023/03/04 02:36:39;;;;;;;22.00;15.70;;;;;;;7.03;53.87;101574.77;106621;1259;25452;-48
2023/03/04 02:39:11;;;;;;;21.90;16.00;;;;;;;7.03;53.54;101574.26;106359;1281;25418;-48
2023/03/04 02:41:39;;;;;;;21.50;16.30;;;;;;;7.02;53.51;101570.45;105700;1275;1002873;-48
2023/03/04 02:44:17;;;;;;;25.20;16.90;;;;;;;7.00;53.17;101572.52;106630;1274;25572;-48
2023/03/04 02:46:46;;;;;;;27.10;17.90;;;;;;;6.96;53.41;101573.02;106555;1274;22522;-48
2023/03/04 02:49:15;;;;;;;24.70;16.60;;;;;;;6.96;53.78;101570.42;106648;1274;23314;-48
2023/03/04 02:51:44;;;;;;;22.40;16.80;;;;;;;6.94;53.81;101570.59;106657;1278;25383;-48
2023/03/04 02:54:15;;;;;;;22.60;17.20;;;;;;;6.97;53.67;101571.98;106424;1281;25439;-48
2023/03/04 02:56:47;;;;;;;22.80;16.70;;;;;;;6.98;53.60;101568.72;106585;1275;22534;-48
2023/03/04 02:59:16;;;;;;;26.30;18.50;;;;;;;6.99;53.34;101572.52;106562;1278;24137;-47
2023/03/04 03:01:46;;;;;;;23.80;17.20;;;;;;;7.03;53.15;101572.35;106020;1270;1003128;-48
2023/03/04 03:04:15;;;;;;;24.20;17.40;;;;;;;7.07;52.86;101572.55;107145;1270;25321;-48
2023/03/04 03:06:44;;;;;;;23.50;16.80;;;;;;;7.08;52.60;101578.60;106806;1272;22514;-48
2023/03/04 03:09:16;;;;;;;20.40;15.70;;;;;;;7.07;52.27;101580.50;106921;1272;25340;-48
2023/03/04 03:11:44;;;;;;;23.00;16.80;;;;;;;7.04;52.16;101579.43;107058;1254;27267;-48
2023/03/04 03:14:13;;;;;;;24.60;16.50;;;;;;;7.00;51.86;101581.15;106237;1269;1003424;-48
2023/03/04 03:16:42;;;;;;;22.40;15.80;;;;;;;6.94;51.70;101584.38;106320;1273;1003035;-47
2023/03/04 03:19:11;;;;;;;24.10;16.30;;;;;;;6.88;51.64;101584.00;106991;1270;22727;-47
2023/03/04 03:21:40;;;;;;;21.60;15.70;;;;;;;6.81;51.61;101588.27;106956;1270;22868;-48
2023/03/04 03:24:08;;;;;;;21.80;15.60;;;;;;;6.75;51.61;101587.88;107075;1270;25433;-48
2023/03/04 03:26:38;;;;;;;22.40;17.00;;;;;;;6.70;51.74;101586.98;107086;1269;22648;-48
2023/03/04 03:29:08;;;;;;;20.10;15.50;;;;;;;6.66;51.75;101583.51;107146;1272;25663;-48
2023/03/04 03:31:38;;;;;;;23.60;16.50;;;;;;;6.63;51.75;101586.40;106271;1271;1003026;-48
2023/03/04 03:34:07;;;;;;;21.70;16.00;;;;;;;6.62;51.85;101587.77;107044;1270;25418;-48
2023/03/04 03:36:37;;;;;;;24.40;17.20;;;;;;;6.59;51.78;101591.04;106960;1270;26727;-48
2023/03/04 03:39:11;;;;;;;22.30;17.10;;;;;;;6.56;51.75;101591.38;106780;1275;25340;-48
2023/03/04 03:41:40;;;;;;;24.10;16.90;;;;;;;6.53;51.74;101589.95;106892;1270;25516;-48
2023/03/04 03:44:09;;;;;;;23.30;16.70;;;;;;;6.50;51.80;101588.04;107031;1269;25221;-48
2023/03/04 03:46:39;;;;;;;24.20;17.30;;;;;;;6.44;51.81;101580.40;106322;1267;1003348;-48
2023/03/04 03:49:07;;;;;;;25.50;17.10;;;;;;;6.39;52.00;101582.09;107059;1272;25427;-48
2023/03/04 03:51:36;;;;;;;23.30;17.30;;;;;;;6.33;52.03;101578.94;106795;1270;25344;-48
2023/03/04 03:54:05;;;;;;;21.90;17.00;;;;;;;6.28;52.21;101584.23;106318;1270;1003283;-48
2023/03/04 03:56:39;;;;;;;27.60;18.40;;;;;;;6.23;52.44;101583.15;107037;1269;25364;-48
2023/03/04 03:59:07;;;;;;;25.20;18.20;;;;;;;6.21;52.73;101586.05;106955;1267;26505;-48
2023/03/04 04:01:36;;;;;;;27.20;17.90;;;;;;;6.21;53.01;101584.33;107064;1267;23288;-48
2023/03/04 04:04:05;;;;;;;25.40;18.00;;;;;;;6.21;53.15;101582.79;107014;1272;25481;-48
2023/03/04 04:06:33;;;;;;;24.40;17.60;;;;;;;6.21;53.18;101583.30;107044;1267;25337;-49
2023/03/04 04:09:01;;;;;;;25.90;18.00;;;;;;;6.19;53.23;101580.86;105958;1269;1003521;-48
2023/03/04 04:11:30;;;;;;;24.50;17.30;;;;;;;6.18;53.34;101579.82;106271;1270;1002978;-48
2023/03/04 04:13:59;;;;;;;25.60;17.50;;;;;;;6.14;53.51;101579.62;107018;1275;24230;-48
2023/03/04 04:16:27;;;;;;;26.90;18.40;;;;;;;6.08;53.78;101579.04;107032;1269;25349;-48
2023/03/04 04:18:56;;;;;;;26.30;18.80;;;;;;;6.05;54.02;101573.50;106994;1271;25412;-48
2023/03/04 04:21:25;;;;;;;26.40;18.90;;;;;;;6.12;53.99;101570.98;107081;1269;25325;-48
2023/03/04 04:23:54;;;;;;;26.50;17.90;;;;;;;6.14;54.11;101573.41;106323;1269;1002992;-48
2023/03/04 04:26:22;;;;;;;28.60;19.60;;;;;;;6.19;53.99;101572.95;107061;1267;25360;-48
2023/03/04 04:28:50;;;;;;;24.30;18.00;;;;;;;6.24;53.95;101572.48;107088;1254;24212;-48
2023/03/04 04:31:19;;;;;;;25.20;17.40;;;;;;;6.28;53.87;101576.48;106092;1269;1003003;-48
2023/03/04 04:33:48;;;;;;;29.50;19.00;;;;;;;6.31;53.63;101575.81;106909;1270;26547;-48
2023/03/04 04:36:16;;;;;;;23.80;18.20;;;;;;;6.32;53.65;101573.41;107010;1269;25331;-48
2023/03/04 04:38:49;;;;;;;28.50;19.60;;;;;;;6.32;53.60;101574.29;106809;1267;25334;-48
2023/03/04 04:41:24;;;;;;;25.90;18.60;;;;;;;6.33;53.52;101574.96;107104;1269;23352;-48
2023/03/04 04:43:52;;;;;;;23.60;18.30;;;;;;;6.35;53.46;101579.98;106983;1272;23884;-47
2023/03/04 04:46:21;;;;;;;27.70;19.10;;;;;;;6.37;53.31;101577.25;106889;1274;25387;-48
2023/03/04 04:48:49;;;;;;;26.80;17.40;;;;;;;6.40;53.02;101578.98;107062;1269;25353;-48
2023/03/04 04:51:18;;;;;;;26.90;18.90;;;;;;;6.40;52.79;101580.02;106376;1270;1003030;-47
2023/03/04 04:53:47;;;;;;;27.80;19.20;;;;;;;6.39;52.54;101575.02;106987;1270;26464;-48
2023/03/04 04:56:20;;;;;;;26.20;18.40;;;;;;;6.36;52.21;101576.55;106248;1270;1002880;-48
2023/03/04 04:58:48;;;;;;;28.20;18.90;;;;;;;6.33;51.95;101581.70;106932;1270;25479;-49
2023/03/04 05:01:16;;;;;;;26.70;17.90;;;;;;;6.30;52.03;101585.45;107042;1272;22513;-48
2023/03/04 05:03:57;;;;;;;25.90;18.80;;;;;;;6.27;51.95;101590.60;106245;1270;1002402;-48
2023/03/04 05:06:26;;;;;;;29.90;19.50;;;;;;;6.24;51.97;101594.02;107019;1270;25346;-48
2023/03/04 05:08:54;;;;;;;27.00;17.70;;;;;;;6.20;52.09;101596.21;107079;1269;25385;-49
2023/03/04 05:11:23;;;;;;;25.40;17.00;;;;;;;6.18;52.23;101600.15;106848;1272;26480;-48
2023/03/04 05:13:51;;;;;;;24.30;17.20;;;;;;;6.17;52.25;101599.98;106972;1272;25340;-48
2023/03/04 05:16:20;;;;;;;27.20;17.80;;;;;;;6.18;52.15;101603.95;107052;1270;25356;-48
2023/03/04 05:18:48;;;;;;;27.20;17.40;;;;;;;6.19;51.97;101606.36;106103;1273;1002962;-48
2023/03/04 05:21:17;;;;;;;26.60;17.90;;;;;;;6.19;51.87;101607.76;107049;1272;25359;-48
2023/03/04 05:23:45;;;;;;;24.90;16.50;;;;;;;6.19;51.50;101607.06;106903;1275;25353;-49
2023/03/04 05:26:15;;;;;;;24.10;16.90;;;;;;;6.17;51.29;101613.94;107034;1270;25315;-48
2023/03/04 05:28:44;;;;;;;24.90;17.70;;;;;;;6.16;51.12;101615.12;106326;1269;1003337;-48
2023/03/04 05:31:12;;;;;;;23.90;15.90;;;;;;;6.13;51.18;101610.45;106777;1270;327569;-49
2023/03/04 05:33:41;;;;;;;22.90;16.20;;;;;;;6.09;51.22;101616.09;106362;1269;1002499;-48
2023/03/04 05:36:10;;;;;;;23.50;15.60;;;;;;;6.05;51.20;101613.64;106900;1268;25328;-48
2023/03/04 05:38:38;;;;;;;22.70;15.40;;;;;;;6.02;51.33;101614.64;107129;1269;23287;-48
2023/03/04 05:41:07;;;;;;;23.50;15.40;;;;;;;6.00;51.36;101616.00;107048;1272;25334;-48
2023/03/04 05:43:37;;;;;;;23.30;15.50;;;;;;;5.98;51.43;101615.29;106890;1272;25450;-48
2023/03/04 05:46:06;;;;;;;23.10;15.70;;;;;;;6.02;51.40;101617.05;107003;1270;25489;-48
2023/03/04 05:48:34;;;;;;;21.80;15.20;;;;;;;6.05;51.39;101614.67;107035;1271;25334;-48
2023/03/04 05:51:03;;;;;;;23.70;15.40;;;;;;;6.10;51.36;101616.61;107036;1270;25353;-48
2023/03/04 05:53:35;;;;;;;20.60;14.60;;;;;;;6.15;51.43;101612.01;106840;1270;22511;-47
2023/03/04 05:56:07;;;;;;;22.90;16.00;;;;;;;6.20;51.34;101609.66;106369;1270;1003415;-48
2023/03/04 05:58:36;;;;;;;21.70;15.30;;;;;;;6.22;51.30;101608.29;107031;1269;25315;-47
2023/03/04 06:01:09;;;;;;;23.60;16.20;;;;;;;6.25;51.18;101607.13;106914;1270;25315;-48
2023/03/04 06:03:38;;;;;;;21.20;15.00;;;;;;;6.28;51.02;101609.39;107046;1270;25278;-50
2023/03/04 06:06:07;;;;;;;21.80;15.30;;;;;;;6.28;50.95;101612.34;107087;1272;25411;-48
2023/03/04 06:08:36;;;;;;;24.00;16.70;;;;;;;6.28;51.06;101612.33;106997;1272;25331;-48
2023/03/04 06:11:05;;;;;;;22.30;16.10;;;;;;;6.29;50.86;101607.85;107003;1269;25340;-48
2023/03/04 06:13:35;;;;;;;23.20;15.60;;;;;;;6.37;51.44;101608.43;106292;1271;1002686;-48
2023/03/04 06:16:04;;;;;;;24.90;17.50;;;;;;;6.55;51.67;101604.11;106853;1273;25399;-48
2023/03/04 06:18:32;;;;;;;23.40;16.10;;;;;;;6.84;51.39;101605.70;106906;1270;22520;-48
2023/03/04 06:21:05;;;;;;;21.90;16.10;;;;;;;7.20;50.61;101603.69;107067;1270;26477;-48
2023/03/04 06:23:34;;;;;;;20.90;14.90;;;;;;;7.59;49.95;101604.21;107068;1270;25350;-48
2023/03/04 06:26:02;;;;;;;20.70;15.00;;;;;;;7.97;49.24;101606.92;107010;1271;25340;-48
2023/03/04 06:28:33;;;;;;;20.60;14.80;;;;;;;8.36;48.17;101607.19;106748;1273;24239;-48
2023/03/04 06:31:02;;;;;;;19.90;14.70;;;;;;;8.72;47.24;101606.85;106758;1270;25347;-48
2023/03/04 06:33:31;;;;;;;21.50;14.40;;;;;;;9.04;46.75;101605.43;106924;1257;24256;-48
2023/03/04 06:36:00;;;;;;;19.40;14.30;;;;;;;9.32;46.16;101605.52;106362;1270;1002369;-47
2023/03/04 06:38:29;;;;;;;19.50;15.50;;;;;;;9.52;45.39;101596.96;107060;1275;26484;-47
2023/03/04 06:41:05;;;;;;;20.20;14.90;;;;;;;9.65;44.78;101593.63;107003;1270;25399;-47
2023/03/04 06:43:33;;;;;;;18.90;14.60;;;;;;;9.72;44.42;101596.02;107017;1273;25287;-47
2023/03/04 06:46:06;;;;;;;17.70;14.40;;;;;;;9.79;44.45;101598.77;106312;1272;1003763;-47
2023/03/04 06:48:35;;;;;;;21.70;15.30;;;;;;;9.86;44.28;101594.89;106888;1272;25452;-47
2023/03/04 06:54:23;;;;;;;20.30;13.90;;;;;;;10.10;43.80;101603.44;104472;1292;544828;-48
2023/03/04 06:56:52;;;;;;;17.70;14.00;;;;;;;10.18;43.75;101598.73;105318;1282;1002831;-48
2023/03/04 06:59:20;;;;;;;17.90;14.40;;;;;;;10.30;43.57;101601.41;105430;1281;1003268;-48
2023/03/04 07:01:49;;;;;;;18.50;14.30;;;;;;;10.45;43.36;101605.64;106796;1270;22551;-48
2023/03/04 07:04:17;;;;;;;16.90;13.70;;;;;;;10.62;43.20;101603.41;106690;1269;25329;-48
2023/03/04 07:06:47;;;;;;;20.40;14.30;;;;;;;10.80;42.74;101598.91;106646;1270;22534;-49
2023/03/04 07:09:17;;;;;;;19.20;14.20;;;;;;;10.94;42.39;101598.25;106791;1269;25460;-48
2023/03/04 07:11:47;;;;;;;17.40;13.30;;;;;;;11.04;42.00;101601.63;106789;1267;25312;-48
2023/03/04 07:14:17;;;;;;;16.30;13.90;;;;;;;11.11;41.76;101604.00;106998;1269;25434;-47
2023/03/04 07:16:45;;;;;;;18.90;14.80;;;;;;;11.13;41.63;101602.75;106458;1267;25325;-48
2023/03/04 07:19:14;;;;;;;19.20;14.50;;;;;;;11.14;41.46;101598.23;107052;1273;25363;-48
2023/03/04 07:21:43;;;;;;;19.30;14.00;;;;;;;11.10;41.32;101596.02;106931;1273;25321;-48
2023/03/04 07:24:12;;;;;;;17.20;14.20;;;;;;;10.98;41.28;101596.14;106881;1267;25366;-48
2023/03/04 07:26:41;;;;;;;23.90;14.00;;;;;;;10.82;41.91;101604.45;107107;1267;24272;-48
2023/03/04 07:29:12;;;;;;;22.30;16.10;;;;;;;10.65;41.80;101607.21;107033;1267;22540;-47
2023/03/04 07:31:40;;;;;;;19.00;14.60;;;;;;;10.49;41.93;101604.92;106230;1270;1002829;-48
2023/03/04 07:34:11;;;;;;;16.30;13.80;;;;;;;10.35;41.91;101605.38;107031;1267;25291;-48
2023/03/04 07:36:41;;;;;;;18.20;13.40;;;;;;;10.21;41.91;101605.12;107020;1267;25297;-48
2023/03/04 07:39:11;;;;;;;19.40;14.60;;;;;;;10.10;42.22;101602.92;107085;1267;25349;-48
2023/03/04 07:41:41;;;;;;;18.30;13.10;;;;;;;10.02;42.20;101601.73;106862;1273;24314;-48
2023/03/04 07:44:10;;;;;;;18.40;14.00;;;;;;;9.94;42.58;101598.85;107033;1256;24415;-48
2023/03/04 07:46:42;;;;;;;16.20;12.80;;;;;;;9.87;42.77;101599.57;106872;1267;25360;-48
2023/03/04 07:49:12;;;;;;;20.70;13.30;;;;;;;9.82;42.57;101600.64;107743;1260;22754;-48
2023/03/04 07:51:40;;;;;;;21.00;12.80;;;;;;;9.78;42.68;101601.36;107250;1267;22521;-47
2023/03/04 07:54:09;;;;;;;17.60;13.30;;;;;;;9.75;42.72;101599.48;107065;1267;25369;-49
2023/03/04 07:56:37;;;;;;;17.70;13.40;;;;;;;9.73;42.78;101598.95;107269;1260;22509;-49
2023/03/04 07:59:06;;;;;;;18.50;13.00;;;;;;;9.73;42.61;101600.52;106940;1267;22526;-48
2023/03/04 08:01:35;;;;;;;16.40;13.00;;;;;;;9.72;43.24;101599.49;106872;1269;25322;-48
2023/03/04 08:04:05;;;;;;;19.90;13.70;;;;;;;9.72;44.06;101602.43;107232;1269;22517;-48
2023/03/04 08:06:35;;;;;;;20.50;13.90;;;;;;;9.71;44.61;101598.27;107262;1261;25343;-48
2023/03/04 08:09:07;;;;;;;17.10;13.40;;;;;;;9.70;45.42;101593.59;106892;1269;25321;-48
2023/03/04 08:11:36;;;;;;;17.60;13.70;;;;;;;9.70;45.57;101585.98;106821;1273;24031;-48
2023/03/04 08:14:06;;;;;;;20.40;13.70;;;;;;;9.73;45.87;101583.72;106816;1275;25353;-48
2023/03/04 08:16:34;;;;;;;17.40;13.50;;;;;;;9.74;46.08;101583.02;107028;1267;24239;-48
2023/03/04 08:19:04;;;;;;;20.10;14.70;;;;;;;9.77;45.93;101583.00;107033;1268;25396;-48
2023/03/04 08:21:33;;;;;;;16.90;12.50;;;;;;;9.80;46.02;101579.86;107100;1271;25437;-48
2023/03/04 08:24:06;;;;;;;16.60;13.30;;;;;;;9.82;46.26;101576.55;107047;1267;25278;-46
2023/03/04 08:26:40;;;;;;;17.20;13.60;;;;;;;9.84;46.19;101573.94;107089;1269;22636;-47
2023/03/04 08:29:15;;;;;;;19.30;14.00;;;;;;;9.84;46.02;101573.95;107127;1275;24202;-47
2023/03/04 08:31:45;;;;;;;17.00;12.60;;;;;;;9.84;46.11;101570.30;106185;1274;1002855;-47
2023/03/04 08:34:17;;;;;;;17.60;12.90;;;;;;;9.85;46.12;101565.27;107067;1261;25397;-47
2023/03/04 08:36:50;;;;;;;16.60;13.00;;;;;;;9.89;45.87;101563.00;107058;1270;25325;-48
2023/03/04 08:39:19;;;;;;;16.90;12.40;;;;;;;9.93;45.35;101558.82;107247;1259;24532;-47
2023/03/04 08:41:48;;;;;;;15.50;11.20;;;;;;;9.97;45.02;101558.78;107063;1262;25372;-47
2023/03/04 08:44:17;;;;;;;15.20;11.40;;;;;;;10.00;44.49;101553.91;107200;1267;22520;-47
2023/03/04 08:46:45;;;;;;;16.00;10.80;;;;;;;10.03;43.86;101550.94;106233;1256;1003054;-47
2023/03/04 08:49:17;;;;;;;14.00;11.00;;;;;;;10.06;43.85;101545.71;107059;1270;25414;-47
2023/03/04 08:51:45;;;;;;;15.30;12.30;;;;;;;10.09;44.16;101539.64;107146;1269;22527;-47
2023/03/04 08:54:14;;;;;;;14.20;11.20;;;;;;;10.11;43.85;101536.54;106271;1269;1003560;-47
2023/03/04 08:56:43;;;;;;;14.70;11.50;;;;;;;10.12;43.73;101529.24;107152;1269;25322;-48
2023/03/04 08:59:12;;;;;;;15.80;11.80;;;;;;;10.14;43.51;101529.06;107443;1267;25328;-48
2023/03/04 09:01:40;;;;;;;16.70;12.90;;;;;;;10.16;43.77;101526.45;107042;1267;24308;-48
2023/03/04 09:04:10;;;;;;;15.90;12.90;;;;;;;10.18;44.53;101526.09;106505;1275;22636;-48
2023/03/04 09:06:39;;;;;;;16.30;11.90;;;;;;;10.18;45.14;101525.04;107118;1267;25318;-48
2023/03/04 09:09:08;;;;;;;17.10;13.60;;;;;;;10.19;45.13;101525.90;106997;1269;25349;-47
2023/03/04 09:11:40;;;;;;;17.70;12.70;;;;;;;10.19;45.40;101526.59;107059;1269;23771;-47
2023/03/04 09:14:08;;;;;;;17.10;13.50;;;;;;;10.18;45.84;101518.95;107043;1270;25423;-48
2023/03/04 09:16:37;;;;;;;19.80;14.30;;;;;;;10.18;45.88;101512.73;106756;1272;25424;-48
2023/03/04 09:19:06;;;;;;;18.40;13.40;;;;;;;10.17;45.91;101513.08;107088;1272;25391;-48
2023/03/04 09:21:39;;;;;;;17.00;13.50;;;;;;;10.18;46.20;101510.48;106892;1272;25314;-47
2023/03/04 09:24:07;;;;;;;17.30;13.60;;;;;;;10.18;46.38;101502.86;106062;1272;1003445;-48
2023/03/04 09:26:36;;;;;;;16.60;12.70;;;;;;;10.19;46.57;101494.70;107192;1267;25314;-48
2023/03/04 09:29:06;;;;;;;15.60;12.10;;;;;;;10.21;46.34;101490.85;107110;1270;25350;-48
2023/03/04 09:31:34;;;;;;;16.60;11.30;;;;;;;10.25;46.19;101488.22;106929;1270;25507;-48
2023/03/04 09:34:05;;;;;;;16.20;11.60;;;;;;;10.27;45.92;101483.36;107236;1258;22653;-48
2023/03/04 09:36:33;;;;;;;17.10;11.30;;;;;;;10.30;46.12;101476.73;107175;1269;25344;-48
2023/03/04 09:39:06;;;;;;;13.50;10.90;;;;;;;10.33;46.09;101470.98;107076;1270;25504;-47
2023/03/04 09:41:41;;;;;;;13.90;10.50;;;;;;;10.36;45.67;101465.74;106975;1269;22548;-48
2023/03/04 09:44:14;;;;;;;13.10;10.00;;;;;;;10.40;45.67;101456.17;106563;1254;1002899;-48
2023/03/04 09:46:44;;;;;;;13.40;9.70;;;;;;;10.46;45.56;101452.12;107112;1260;25373;-48
2023/03/04 09:49:13;;;;;;;12.90;10.30;;;;;;;10.51;44.99;101450.50;106209;1259;1002910;-48
2023/03/04 09:51:47;;;;;;;13.20;9.30;;;;;;;10.55;44.48;101441.62;106345;1273;1002937;-48
2023/03/04 09:54:25;;;;;;;12.20;9.70;;;;;;;10.56;44.25;101442.13;107100;1262;25393;-48
2023/03/04 09:57:05;;;;;;;13.20;10.10;;;;;;;10.57;44.23;101432.75;107076;1267;25354;-48
2023/03/04 09:59:42;;;;;;;11.30;9.40;;;;;;;10.57;43.97;101427.89;107122;1261;24275;-48
2023/03/04 10:02:22;;;;;;;14.10;10.30;;;;;;;10.58;43.32;101423.19;106239;1263;1003706;-48
2023/03/04 10:04:52;;;;;;;11.60;9.40;;;;;;;10.59;43.19;101417.65;106965;1270;22535;-48
2023/03/04 10:10:47;;;;;;;12.70;10.00;;;;;;;10.58;42.56;101407.58;103914;1292;544926;-48
2023/03/04 10:13:21;;;;;;;11.60;8.70;;;;;;;10.56;42.75;101403.61;106026;1274;25348;-48
2023/03/04 10:15:52;;;;;;;15.00;9.90;;;;;;;10.58;42.92;101402.03;106084;1273;25413;-47
2023/03/04 10:18:35;;;;;;;;;;;;;;;10.60;42.93;101398.89;105364;1266;1004057;-48
2023/03/04 10:21:22;;;;;;;12.90;9.30;;;;;;;10.63;42.84;101391.91;105930;1283;25549;-48
2023/03/04 10:23:52;;;;;;;12.50;10.10;;;;;;;10.64;42.68;101387.04;106095;1263;221191;-47
2023/03/04 10:26:28;;;;;;;13.80;9.80;;;;;;;10.66;42.54;101378.52;106340;1272;23295;-47
2023/03/04 10:28:57;;;;;;;12.50;9.20;;;;;;;10.68;42.54;101374.14;106267;1279;23254;-48
2023/03/04 10:31:35;;;;;;;14.30;9.90;;;;;;;10.68;42.58;101367.02;106315;1280;25366;-47
2023/03/04 10:34:05;;;;;;;15.10;11.20;;;;;;;10.68;42.55;101365.99;105572;1279;1003768;-48
2023/03/04 10:36:54;;;;;;;11.80;10.00;;;;;;;10.69;43.02;101365.11;106282;1276;22591;-48
2023/03/04 10:39:41;;;;;;;13.10;9.20;;;;;;;10.71;43.69;101358.48;106419;1281;24199;-48
2023/03/04 10:42:14;;;;;;;12.40;10.00;;;;;;;10.74;43.85;101353.23;106382;1276;22540;-47
2023/03/04 10:44:51;;;;;;;14.40;11.00;;;;;;;10.76;43.80;101348.54;106503;1276;24256;-48
2023/03/04 10:47:25;;;;;;;16.40;10.90;;;;;;;10.77;43.74;101344.54;106441;1276;22550;-48
2023/03/04 10:49:59;;;;;;;15.60;11.20;;;;;;;10.79;43.93;101343.98;105661;1280;1003830;-48
2023/03/04 10:52:30;;;;;;;13.80;10.60;;;;;;;10.81;44.12;101337.71;106062;1281;22524;-48
2023/03/04 10:55:00;;;;;;;15.20;11.50;;;;;;;10.82;44.04;101332.30;105548;1284;1002972;-48
2023/03/04 10:57:31;;;;;;;13.80;11.00;;;;;;;10.81;44.50;101328.68;106425;1276;22555;-49
2023/03/04 10:59:59;;;;;;;16.20;12.50;;;;;;;10.80;44.68;101325.59;106352;1276;24299;-48
2023/03/04 11:02:34;;;;;;;16.40;12.30;;;;;;;10.79;45.03;101324.38;106290;1280;25343;-48
2023/03/04 11:05:16;;;;;;;17.70;12.30;;;;;;;10.80;45.39;101320.52;106514;1276;25246;-49
2023/03/04 11:07:52;;;;;;;16.90;12.50;;;;;;;10.83;45.79;101311.64;105728;1269;1003701;-48
2023/03/04 11:10:26;;;;;;;15.80;13.10;;;;;;;10.87;45.97;101305.33;106451;1268;22562;-48
2023/03/04 11:13:01;;;;;;;16.20;13.20;;;;;;;10.90;46.40;101299.58;106583;1278;25414;-48
2023/03/04 11:15:30;;;;;;;16.40;12.00;;;;;;;10.92;46.66;101296.76;106741;1276;22539;-48
2023/03/04 11:18:03;;;;;;;16.00;11.70;;;;;;;10.94;46.10;101292.92;106502;1276;24263;-47
2023/03/04 11:20:35;;;;;;;17.40;11.80;;;;;;;10.91;46.17;101286.18;106569;1282;22752;-48
2023/03/04 11:23:05;;;;;;;16.90;13.20;;;;;;;10.88;45.90;101283.63;106603;1278;22629;-48
2023/03/04 11:25:47;;;;;;;15.20;12.60;;;;;;;10.84;46.29;101285.27;106699;1269;22533;-48